Aeroporto :
LOGIN :

Iscrizione | Disclaimer

   EN    FR    IT 

 










Sommario :    VFR   VFR Marginale   IFR   IFR Intensivo   IFR Molto Intensivo
Visibilità : 
Base nubi : 
>= 8 km
>= 3000ft
5 / 8 km
1000 / 3000 ft
1500m / 5 km
500 / 1000 ft
800 / 1500m
200 / 500 ft
< 800m
< 200 ft
Simboli :   Temporali  Nebbia  Neve Forte  Precipitazioni Forti  Vento > 20 kt
SIGMETs :   Varie  Temporali  Ghiacco  Turbolenza  Onda orograficha  Ceneri Vulcaniche







- Altitudine del aeroporto : 79 ft
- Codice IATA : SPU


LDSP - Split

ULTIMO METAR :
  • 240900Z 11005KT 9999 FEW040 22/09 Q1013 NOSIG

METARs OBSOLETI :
  • 240830Z 11004KT 070V160 CAVOK 22/10 Q1013 NOSIG
  • 240800Z 12004KT 070V170 CAVOK 21/09 Q1013 NOSIG
  • 240730Z 14004KT 110V190 CAVOK 21/10 Q1013 NOSIG
  • 240700Z 13004KT 090V160 CAVOK 21/09 Q1013 NOSIG
  • 240630Z 02005KT 340V050 CAVOK 21/09 Q1013 NOSIG

TAF TAF LDSP
Valido dal 24 a 06 ore il 25 a 06 ore UTC


240525Z 2406/2506 03006KT CAVOK TX23/2413Z TN15/2504Z
BECMG 2409/2411 23010KT
BECMG 2415/2417 31006KT
Nessun NOTAM noto per questo aeroporto.



MetMap, La meteo Aeronautica in un colpo d'occhio ! - Copyright ORBIFLY Dicembre 2007 - Disclaimer

ORBIFLY MET'MAP TEAM :

Programmazione e sviluppo : Alexandra Zaïnal
Concezione e sviluppo : Baudouin d'Aumeries
Co-Programmazione e sviluppo : Marc-Olivier Méhu
Supporto tecnico e logistico : Manuel Goepfert
Aiuto per la traduzione : Arnaldo La Scala

Contatto : metmap@orbifly.com




FONTI E CREDITI :

   NOAA